Time;durP1;ratioP1;P1;durP2;ratioP2;P2;SDS_P1;SDS_P2;PMS_P1;PMS_P2;Temp;Humidity;BMP_temperature;BMP_pressure;BME280_temperature;BME280_humidity;BME280_pressure;Samples;Min_cycle;Max_cycle;Signal;HPM_P1;HPM_P2
2022/03/30 00:02:18;;;;;;;3.15;1.63;;;-4.10;99.90;;;;;;4901066;29;20486;-82
2022/03/30 00:04:45;;;;;;;2.60;1.63;;;-4.30;99.90;;;;;;4914752;29;20774;-83
2022/03/30 00:07:13;;;;;;;3.22;1.70;;;-4.30;99.90;;;;;;4915746;29;20429;-83
2022/03/30 00:09:41;;;;;;;2.47;1.60;;;-4.30;99.90;;;;;;4915581;29;20398;-83
2022/03/30 00:12:09;;;;;;;3.20;1.67;;;-4.30;99.90;;;;;;4898890;29;20455;-82
2022/03/30 00:14:37;;;;;;;3.20;1.73;;;-4.20;99.90;;;;;;4898865;29;20428;-83
2022/03/30 00:17:05;;;;;;;3.08;1.60;;;-4.20;99.90;;;;;;4898920;29;20419;-83
2022/03/30 00:19:33;;;;;;;3.75;1.80;;;-4.20;99.90;;;;;;4898815;29;20407;-83
2022/03/30 00:22:00;;;;;;;2.60;1.52;;;-4.20;99.90;;;;;;4900640;29;20428;-83
2022/03/30 00:24:28;;;;;;;4.10;1.92;;;-4.20;99.90;;;;;;4918175;29;20486;-83
2022/03/30 00:26:57;;;;;;;3.35;1.90;;;-4.30;99.90;;;;;;4933891;29;20403;-83
2022/03/30 00:29:25;;;;;;;3.95;2.40;;;-4.40;99.90;;;;;;4902386;29;20662;-83
2022/03/30 00:31:53;;;;;;;3.20;1.98;;;-4.30;99.90;;;;;;4933684;29;20463;-83
2022/03/30 00:34:20;;;;;;;2.38;1.60;;;-4.30;99.90;;;;;;4902302;29;20558;-83
2022/03/30 00:36:48;;;;;;;3.60;1.65;;;-4.40;99.90;;;;;;4918224;29;20499;-83
2022/03/30 00:39:18;;;;;;;3.80;1.70;;;-4.40;99.90;;;;;;4918899;29;20403;-82
2022/03/30 00:41:46;;;;;;;3.60;1.90;;;-4.40;99.90;;;;;;4919018;29;20400;-83
2022/03/30 00:44:14;;;;;;;3.72;1.80;;;-4.50;99.90;;;;;;4902112;29;20398;-83
2022/03/30 00:46:45;;;;;;;3.87;1.90;;;-4.50;99.90;;;;;;4917858;29;20491;-82
2022/03/30 00:49:13;;;;;;;2.60;1.75;;;-4.40;99.90;;;;;;4930245;29;20861;-83
2022/03/30 00:51:40;;;;;;;3.03;1.70;;;-4.50;99.90;;;;;;4936747;29;20406;-82
2022/03/30 00:54:08;;;;;;;3.78;1.88;;;-4.50;99.90;;;;;;4936661;29;20982;-82
2022/03/30 00:56:39;;;;;;;3.45;2.05;;;-4.60;99.90;;;;;;4936362;29;20418;-83
2022/03/30 00:59:07;;;;;;;2.97;1.80;;;-4.50;99.90;;;;;;4936627;29;20449;-83
2022/03/30 01:01:34;;;;;;;3.05;1.98;;;-4.60;99.90;;;;;;4937671;29;20494;-83
2022/03/30 01:04:04;;;;;;;4.47;1.83;;;-4.70;99.90;;;;;;4936180;29;20414;-83
2022/03/30 01:06:32;;;;;;;3.33;1.90;;;-4.60;99.90;;;;;;4936316;29;20449;-82
2022/03/30 01:09:00;;;;;;;3.00;1.70;;;-4.60;99.90;;;;;;4937443;29;20453;-82
2022/03/30 01:11:28;;;;;;;3.63;2.00;;;-4.60;99.90;;;;;;4951919;29;20472;-82
2022/03/30 01:13:56;;;;;;;3.33;1.95;;;-4.60;99.90;;;;;;4937625;29;20868;-82
2022/03/30 01:16:31;;;;;;;3.65;1.95;;;-4.70;99.90;;;;;;4937119;29;20812;-83
2022/03/30 01:19:07;;;;;;;3.30;1.67;;;-4.50;99.90;;;;;;4936144;29;20402;-84
2022/03/30 01:21:40;;;;;;;3.13;1.70;;;-4.60;99.90;;;;;;4937438;29;20428;-83
2022/03/30 01:24:09;;;;;;;3.75;1.60;;;-4.70;99.90;;;;;;4936180;29;20400;-82
2022/03/30 01:26:37;;;;;;;3.15;1.60;;;-4.70;99.90;;;;;;4936073;29;20494;-84
2022/03/30 01:32:25;;;;;;;3.60;1.70;;;-4.80;99.90;;;;;;4936161;29;20430;-83
2022/03/30 01:34:42;;;;;;;2.83;1.80;;;-4.80;99.90;;;;;;4937036;29;20402;-82
2022/03/30 01:37:12;;;;;;;3.80;1.83;;;-4.70;99.90;;;;;;4936818;29;20821;-83
2022/03/30 01:39:41;;;;;;;3.15;1.80;;;-4.80;99.90;;;;;;4935972;29;20501;-83
2022/03/30 01:42:09;;;;;;;2.72;1.83;;;-4.70;99.90;;;;;;4935684;29;20394;-83
2022/03/30 01:44:38;;;;;;;4.35;2.00;;;-4.60;99.90;;;;;;4936876;29;20761;-82
2022/03/30 01:47:08;;;;;;;3.20;1.50;;;-4.60;99.90;;;;;;4935565;29;20476;-82
2022/03/30 01:49:37;;;;;;;3.72;1.77;;;-4.70;99.90;;;;;;4935570;29;20398;-83
2022/03/30 01:52:05;;;;;;;3.22;1.50;;;-4.70;99.90;;;;;;4951470;29;20402;-83
2022/03/30 01:54:36;;;;;;;2.97;1.60;;;-4.90;99.90;;;;;;4936694;29;20750;-83
2022/03/30 01:57:05;;;;;;;3.25;1.88;;;-5.00;99.90;;;;;;4936673;29;20977;-83
2022/03/30 01:59:33;;;;;;;3.85;1.60;;;-5.00;99.90;;;;;;4936566;29;20426;-81
2022/03/30 02:02:02;;;;;;;2.40;1.40;;;-4.90;99.90;;;;;;4936336;29;20406;-83
2022/03/30 02:04:30;;;;;;;2.42;1.60;;;-5.00;99.90;;;;;;4934923;29;20405;-82
2022/03/30 02:06:58;;;;;;;3.53;1.75;;;-5.10;99.90;;;;;;4951004;29;20493;-83
2022/03/30 02:09:25;;;;;;;3.38;1.65;;;-5.10;99.90;;;;;;4935107;29;20421;-83
2022/03/30 02:11:54;;;;;;;3.10;1.70;;;-5.00;99.90;;;;;;4936342;29;20959;-82
2022/03/30 02:14:21;;;;;;;2.72;1.60;;;-4.90;99.90;;;;;;4936376;29;20394;-82
2022/03/30 02:16:49;;;;;;;2.35;1.35;;;-4.90;99.90;;;;;;4936150;29;20506;-82
2022/03/30 02:19:17;;;;;;;2.22;1.38;;;-4.90;99.90;;;;;;4936286;29;20876;-82
2022/03/30 02:21:45;;;;;;;2.13;1.30;;;-5.10;99.90;;;;;;4935911;29;20394;-82
2022/03/30 02:24:13;;;;;;;2.17;1.37;;;-5.10;99.90;;;;;;4935068;29;20756;-83
2022/03/30 02:26:41;;;;;;;2.00;1.27;;;-5.20;99.90;;;;;;4950553;29;20398;-83
2022/03/30 02:29:08;;;;;;;2.13;1.50;;;-5.20;99.90;;;;;;4950823;29;20417;-84
2022/03/30 02:31:36;;;;;;;2.20;1.30;;;-5.10;99.90;;;;;;4934798;29;20409;-83
2022/03/30 02:34:04;;;;;;;2.35;1.38;;;-5.00;99.90;;;;;;4934893;29;20402;-83
2022/03/30 02:36:32;;;;;;;2.88;1.50;;;-5.00;99.90;;;;;;4935754;29;20469;-83
2022/03/30 02:39:00;;;;;;;2.67;1.50;;;-5.00;99.90;;;;;;4935986;29;20401;-84
2022/03/30 02:41:27;;;;;;;3.58;1.70;;;-5.10;99.90;;;;;;4934558;29;20487;-82
2022/03/30 02:43:55;;;;;;;2.72;1.42;;;-5.00;99.90;;;;;;4934794;29;20401;-82
2022/03/30 02:46:23;;;;;;;2.75;1.45;;;-5.10;99.90;;;;;;4948853;29;20410;-82
2022/03/30 02:48:50;;;;;;;2.50;1.50;;;-5.10;99.90;;;;;;4935426;29;20417;-82
2022/03/30 02:51:18;;;;;;;3.58;1.40;;;-5.00;99.90;;;;;;4950501;29;20402;-83
2022/03/30 02:53:45;;;;;;;4.20;1.60;;;-5.00;99.90;;;;;;4933412;29;20405;-82
2022/03/30 02:56:13;;;;;;;2.75;1.60;;;-5.00;99.90;;;;;;4935003;29;20413;-81
2022/03/30 02:58:41;;;;;;;3.72;1.52;;;-5.00;99.90;;;;;;4934372;29;20436;-83
2022/03/30 03:01:08;;;;;;;1.95;1.48;;;-5.00;99.90;;;;;;4935331;29;20457;-82
2022/03/30 03:03:36;;;;;;;2.63;1.55;;;-5.00;99.90;;;;;;4927840;29;20457;-83
2022/03/30 03:06:04;;;;;;;3.20;1.70;;;-5.00;99.90;;;;;;4929781;29;20480;-83
2022/03/30 03:08:32;;;;;;;2.40;1.50;;;-5.10;99.90;;;;;;4935224;29;20892;-82
2022/03/30 03:11:00;;;;;;;3.50;1.60;;;-5.00;99.90;;;;;;4935060;29;20402;-83
2022/03/30 03:13:27;;;;;;;2.67;1.42;;;-5.00;99.90;;;;;;4935113;29;20398;-84
2022/03/30 03:15:55;;;;;;;2.78;1.63;;;-5.10;99.90;;;;;;4949878;29;20420;-82
2022/03/30 03:18:22;;;;;;;3.08;1.60;;;-5.10;99.90;;;;;;4931074;29;20973;-84
2022/03/30 03:20:50;;;;;;;2.50;1.50;;;-5.00;99.90;;;;;;4915053;29;20400;-83
2022/03/30 03:23:18;;;;;;;2.25;1.50;;;-5.00;99.90;;;;;;4916142;29;20404;-83
2022/03/30 03:25:46;;;;;;;2.88;1.55;;;-5.10;99.90;;;;;;4914972;29;20482;-82
2022/03/30 03:28:15;;;;;;;2.95;1.50;;;-5.10;99.90;;;;;;4916084;29;20391;-83
2022/03/30 03:30:42;;;;;;;3.08;1.70;;;-5.20;99.90;;;;;;4916046;29;20472;-83
2022/03/30 03:33:10;;;;;;;2.65;1.58;;;-5.20;99.90;;;;;;4934311;29;20403;-83
2022/03/30 03:35:39;;;;;;;3.25;1.50;;;-5.20;99.90;;;;;;4921896;29;20722;-83
2022/03/30 03:38:08;;;;;;;2.30;1.30;;;-5.30;99.90;;;;;;4914844;29;20521;-83
2022/03/30 03:40:36;;;;;;;3.37;1.47;;;-5.30;99.90;;;;;;4915938;29;20396;-82
2022/03/30 03:43:05;;;;;;;3.13;1.60;;;-5.30;99.90;;;;;;4930650;29;20749;-82
2022/03/30 03:45:33;;;;;;;2.67;1.63;;;-5.20;99.90;;;;;;4934586;29;20489;-81
2022/03/30 03:48:01;;;;;;;3.70;1.70;;;-5.20;99.90;;;;;;4933610;29;20402;-84
2022/03/30 03:50:29;;;;;;;3.42;1.52;;;-5.20;99.90;;;;;;4933507;29;20397;-83
2022/03/30 03:52:56;;;;;;;2.75;1.60;;;-5.20;99.90;;;;;;4934735;29;20386;-84
2022/03/30 03:55:24;;;;;;;2.67;1.50;;;-5.20;99.90;;;;;;4933272;29;20821;-82
2022/03/30 03:57:52;;;;;;;2.47;1.45;;;-5.20;99.90;;;;;;4934791;29;20417;-83
2022/03/30 04:00:19;;;;;;;3.00;1.70;;;-5.30;99.90;;;;;;4934652;29;20394;-83
2022/03/30 04:02:47;;;;;;;2.55;1.30;;;-5.30;99.90;;;;;;4934501;29;20406;-82
2022/03/30 04:05:15;;;;;;;2.03;1.42;;;-5.40;99.90;;;;;;4934601;29;20456;-84
2022/03/30 04:07:42;;;;;;;2.40;1.50;;;-5.40;99.90;;;;;;4943551;29;20419;-81
2022/03/30 04:10:11;;;;;;;2.67;1.42;;;-5.50;99.90;;;;;;4924811;29;20449;-82
2022/03/30 04:12:40;;;;;;;3.20;1.60;;;-5.40;99.90;;;;;;4931347;29;21434;-85
2022/03/30 04:15:09;;;;;;;2.58;1.40;;;-5.50;99.90;;;;;;4926116;29;20430;-86
2022/03/30 04:17:47;;;;;;;2.50;1.52;;;-5.50;99.90;;;;;;4922747;29;20928;-82
2022/03/30 04:20:15;;;;;;;3.50;1.55;;;-5.50;99.90;;;;;;4917857;29;20461;-84
2022/03/30 04:22:44;;;;;;;2.47;1.50;;;-5.60;99.90;;;;;;4933226;29;20398;-84
2022/03/30 04:25:12;;;;;;;2.95;1.48;;;-5.60;99.90;;;;;;4933259;29;20733;-84
2022/03/30 04:27:48;;;;;;;2.95;1.20;;;-5.60;99.90;;;;;;4934393;29;20923;-85
2022/03/30 04:30:18;;;;;;;2.93;1.40;;;-5.60;99.90;;;;;;4932408;29;20421;-85
2022/03/30 04:32:45;;;;;;;2.25;1.48;;;-5.60;99.90;;;;;;4934462;29;20821;-83
2022/03/30 04:35:24;;;;;;;2.25;1.30;;;-5.60;99.90;;;;;;4934015;29;20793;-82
2022/03/30 04:37:54;;;;;;;2.75;1.70;;;-5.60;99.90;;;;;;4933233;29;20497;-85
2022/03/30 04:40:24;;;;;;;2.27;1.40;;;-5.60;99.90;;;;;;4933362;29;20405;-82
2022/03/30 04:42:52;;;;;;;2.55;1.50;;;-5.60;99.90;;;;;;4932335;29;20486;-84
2022/03/30 04:45:20;;;;;;;2.60;1.37;;;-5.70;99.90;;;;;;4932791;29;20398;-83
2022/03/30 04:47:49;;;;;;;1.92;1.27;;;-5.70;99.90;;;;;;4933418;29;20960;-82
2022/03/30 04:50:17;;;;;;;2.67;1.45;;;-5.70;99.90;;;;;;4933860;29;20480;-84
2022/03/30 04:52:45;;;;;;;2.95;1.65;;;-5.80;99.90;;;;;;4932633;29;20402;-83
2022/03/30 04:55:12;;;;;;;2.92;1.42;;;-5.80;99.90;;;;;;4932837;29;20995;-84
2022/03/30 04:57:41;;;;;;;2.40;1.40;;;-5.70;99.90;;;;;;4932745;29;20417;-82
2022/03/30 05:00:12;;;;;;;2.33;1.50;;;-5.70;99.90;;;;;;4948924;29;20469;-83
2022/03/30 05:02:40;;;;;;;3.00;1.38;;;-5.70;99.90;;;;;;4932192;29;20402;-82
2022/03/30 05:05:10;;;;;;;2.95;1.70;;;-5.70;99.90;;;;;;4932894;29;20746;-83
2022/03/30 05:07:39;;;;;;;2.47;1.40;;;-5.70;99.90;;;;;;4949817;28;20401;-83
2022/03/30 05:10:10;;;;;;;3.60;1.50;;;-5.70;99.90;;;;;;4937567;29;20402;-83
2022/03/30 05:12:38;;;;;;;2.70;1.58;;;-5.80;99.90;;;;;;4951980;29;20423;-82
2022/03/30 05:15:09;;;;;;;2.78;1.73;;;-5.70;99.90;;;;;;4936207;29;20877;-82
2022/03/30 05:17:39;;;;;;;3.30;1.85;;;-5.70;99.90;;;;;;4952005;29;20424;-82
2022/03/30 05:20:07;;;;;;;4.03;1.77;;;-5.90;99.90;;;;;;4936351;29;20390;-83
2022/03/30 05:22:35;;;;;;;3.47;1.60;;;-5.90;99.90;;;;;;4936077;29;20398;-82
2022/03/30 05:25:04;;;;;;;3.00;1.58;;;-5.90;99.90;;;;;;4936165;29;20485;-83
2022/03/30 05:27:32;;;;;;;3.55;1.77;;;-5.80;99.90;;;;;;4937184;29;20408;-83
2022/03/30 05:30:02;;;;;;;3.20;1.77;;;-5.70;99.90;;;;;;4935954;29;20888;-82
2022/03/30 05:32:30;;;;;;;3.60;1.85;;;-5.60;99.90;;;;;;4937045;29;20456;-83
2022/03/30 05:34:58;;;;;;;3.75;1.92;;;-5.60;99.90;;;;;;4935885;29;20398;-82
2022/03/30 05:37:25;;;;;;;3.83;2.13;;;-5.60;99.90;;;;;;4936843;29;20920;-83
2022/03/30 05:39:53;;;;;;;3.47;1.85;;;-5.50;99.90;;;;;;4936730;29;20497;-82
2022/03/30 05:42:22;;;;;;;4.03;1.83;;;-5.50;99.90;;;;;;4936905;29;20421;-83
2022/03/30 05:44:51;;;;;;;4.32;1.80;;;-5.40;99.90;;;;;;4935491;29;20400;-83
2022/03/30 05:47:18;;;;;;;4.47;1.80;;;-5.60;99.90;;;;;;4936824;29;20920;-83
2022/03/30 05:49:46;;;;;;;3.30;1.80;;;-5.70;99.90;;;;;;4936635;29;20405;-83
2022/03/30 05:52:14;;;;;;;3.30;1.90;;;-5.50;99.90;;;;;;4951454;29;20742;-83
2022/03/30 05:54:41;;;;;;;2.83;1.52;;;-5.40;99.90;;;;;;4936605;29;20880;-83
2022/03/30 05:57:09;;;;;;;3.95;2.13;;;-5.30;99.90;;;;;;4936511;29;20421;-82
2022/03/30 05:59:41;;;;;;;3.00;1.80;;;-5.30;99.90;;;;;;4935255;29;20764;-82
2022/03/30 06:02:11;;;;;;;3.70;1.90;;;-5.30;99.90;;;;;;4936595;29;20397;-82
2022/03/30 06:04:41;;;;;;;4.35;1.92;;;-5.40;99.90;;;;;;4935318;29;20668;-83
2022/03/30 06:07:09;;;;;;;4.85;2.33;;;-5.30;99.90;;;;;;4936421;29;20401;-83
2022/03/30 06:09:37;;;;;;;4.03;2.00;;;-5.10;99.90;;;;;;4935156;29;20398;-83
2022/03/30 06:12:11;;;;;;;3.35;1.50;;;-5.00;99.90;;;;;;4936708;29;20394;-83
2022/03/30 06:14:39;;;;;;;4.15;1.40;;;-5.10;99.90;;;;;;4935274;29;20393;-84
2022/03/30 06:17:09;;;;;;;2.83;1.83;;;-5.10;99.90;;;;;;4935031;29;20410;-83
2022/03/30 06:19:38;;;;;;;2.53;1.65;;;-5.10;99.90;;;;;;4919310;29;20834;-82
2022/03/30 06:22:08;;;;;;;2.17;1.40;;;-5.00;99.90;;;;;;4935107;29;20473;-82
2022/03/30 06:24:38;;;;;;;4.45;1.50;;;-5.00;99.90;;;;;;4934946;29;20912;-83
2022/03/30 06:27:07;;;;;;;2.15;1.27;;;-5.10;99.90;;;;;;4936393;29;20401;-82
2022/03/30 06:29:35;;;;;;;2.00;1.40;;;-5.10;99.90;;;;;;4934952;29;20504;-83
2022/03/30 06:32:04;;;;;;;2.67;1.40;;;-5.00;99.90;;;;;;4919162;29;20485;-83
2022/03/30 06:34:32;;;;;;;3.25;1.38;;;-5.00;99.90;;;;;;4919104;29;20485;-82
2022/03/30 06:37:00;;;;;;;2.37;1.10;;;-5.00;99.90;;;;;;4934676;29;20425;-83
2022/03/30 06:39:27;;;;;;;1.63;1.10;;;-4.90;99.90;;;;;;4935945;29;20394;-83
2022/03/30 06:41:56;;;;;;;2.15;1.13;;;-4.90;99.90;;;;;;4934608;29;20398;-82
2022/03/30 06:44:24;;;;;;;2.10;1.00;;;-4.90;99.90;;;;;;4931210;29;20400;-82
2022/03/30 06:46:52;;;;;;;2.60;1.20;;;-4.90;99.90;;;;;;4916664;29;20391;-81
2022/03/30 06:49:21;;;;;;;2.50;1.10;;;-4.90;99.90;;;;;;4931312;29;20902;-82
2022/03/30 06:51:49;;;;;;;2.58;1.30;;;-4.80;99.90;;;;;;4899780;29;20415;-83
2022/03/30 06:54:16;;;;;;;2.05;0.68;;;-4.80;99.90;;;;;;4915483;29;20408;-82
2022/03/30 06:56:45;;;;;;;2.22;1.00;;;-4.80;99.90;;;;;;4915258;29;20406;-82
2022/03/30 06:59:13;;;;;;;4.10;1.05;;;-4.80;99.90;;;;;;4915300;29;20415;-83
2022/03/30 07:01:41;;;;;;;3.37;1.00;;;-4.90;99.90;;;;;;4916571;29;20395;-83
2022/03/30 07:04:09;;;;;;;2.00;0.80;;;-4.80;99.90;;;;;;4916266;29;20478;-82
2022/03/30 07:10:14;;;;;;;2.47;0.70;;;-4.80;99.90;;;;;;4931017;29;20863;-83
2022/03/30 07:12:13;;;;;;;1.58;0.80;;;-4.70;99.90;;;;;;4916301;29;20427;-82
2022/03/30 07:14:41;;;;;;;2.45;0.70;;;-4.70;99.90;;;;;;4914936;29;20407;-83
2022/03/30 07:17:09;;;;;;;1.35;0.70;;;-4.70;99.90;;;;;;4915075;29;20412;-83
2022/03/30 07:19:38;;;;;;;1.90;0.70;;;-4.70;99.90;;;;;;4916155;29;20392;-83
2022/03/30 07:22:10;;;;;;;2.03;0.67;;;-4.70;99.90;;;;;;4916270;29;20902;-83
2022/03/30 07:24:38;;;;;;;3.33;0.77;;;-4.60;99.90;;;;;;4931050;29;20400;-82
2022/03/30 07:27:06;;;;;;;1.65;0.80;;;-4.40;99.90;;;;;;4914917;29;20445;-82
2022/03/30 07:29:34;;;;;;;1.50;0.70;;;-4.40;99.90;;;;;;4930380;29;20471;-82
2022/03/30 07:32:02;;;;;;;2.60;0.90;;;-4.40;99.90;;;;;;4930553;29;20792;-83
2022/03/30 07:34:30;;;;;;;2.10;0.70;;;-4.30;99.90;;;;;;4914999;29;20467;-83
2022/03/30 07:36:59;;;;;;;2.45;0.90;;;-4.10;99.90;;;;;;4930513;29;20473;-84
2022/03/30 07:39:26;;;;;;;2.45;0.90;;;-4.00;99.90;;;;;;4914789;29;20415;-82
2022/03/30 07:41:54;;;;;;;2.90;1.00;;;-4.00;99.90;;;;;;4914896;29;20454;-83
2022/03/30 07:44:22;;;;;;;1.40;0.85;;;-4.10;99.90;;;;;;4916269;29;20450;-83
2022/03/30 07:46:49;;;;;;;1.73;0.85;;;-4.10;99.90;;;;;;4915766;29;20993;-82
2022/03/30 07:49:17;;;;;;;2.38;0.80;;;-4.00;99.90;;;;;;4930393;29;20400;-82
2022/03/30 07:51:45;;;;;;;1.70;0.82;;;-4.00;99.90;;;;;;4914580;29;20392;-82
2022/03/30 07:54:13;;;;;;;2.70;1.00;;;-4.00;99.90;;;;;;4914606;29;20400;-82
2022/03/30 07:56:41;;;;;;;2.03;0.82;;;-3.90;99.90;;;;;;4930174;29;20398;-82
2022/03/30 07:59:08;;;;;;;2.53;0.93;;;-3.80;99.90;;;;;;4930349;29;20412;-82
2022/03/30 08:01:36;;;;;;;1.80;0.85;;;-3.80;99.90;;;;;;4915658;29;20561;-82
2022/03/30 08:04:04;;;;;;;2.22;0.80;;;-3.70;99.90;;;;;;4915453;29;20902;-82
2022/03/30 08:06:32;;;;;;;1.35;0.75;;;-3.50;99.90;;;;;;4915685;29;20913;-81
2022/03/30 08:08:59;;;;;;;2.17;0.90;;;-3.50;99.90;;;;;;4915736;29;20427;-83
2022/03/30 08:11:28;;;;;;;2.00;0.70;;;-3.50;99.90;;;;;;4915479;29;20406;-83
2022/03/30 08:13:56;;;;;;;2.40;0.68;;;-3.50;99.90;;;;;;4915552;29;20478;-82
2022/03/30 08:16:24;;;;;;;1.63;0.70;;;-3.50;99.90;;;;;;4915469;29;20474;-83
2022/03/30 08:18:52;;;;;;;3.03;0.73;;;-3.40;99.90;;;;;;4914226;29;20426;-82
2022/03/30 08:24:06;;;;;;;1.80;0.90;;;-3.30;99.90;;;;;;4914253;29;20970;-82
2022/03/30 08:26:34;;;;;;;1.88;0.80;;;-3.30;99.90;;;;;;4918964;29;20409;-82
2022/03/30 08:29:01;;;;;;;1.10;0.70;;;-3.30;99.90;;;;;;4929961;29;20516;-83
2022/03/30 08:31:49;;;;;;;2.10;0.90;;;-3.30;99.90;;;;;;4928641;29;20417;-81
2022/03/30 08:34:18;;;;;;;1.90;0.70;;;-3.20;99.90;;;;;;4914172;29;20407;-83
2022/03/30 08:36:46;;;;;;;1.52;0.70;;;-3.30;99.90;;;;;;4914009;29;20407;-83
2022/03/30 08:39:14;;;;;;;2.13;0.90;;;-3.30;99.90;;;;;;4915383;29;20491;-83
2022/03/30 08:41:43;;;;;;;2.53;0.80;;;-3.40;99.90;;;;;;4915567;29;20396;-83
2022/03/30 08:44:17;;;;;;;1.27;0.60;;;-3.40;99.90;;;;;;4917619;29;20502;-81
2022/03/30 08:46:46;;;;;;;1.30;0.63;;;-3.20;99.90;;;;;;4918895;29;20396;-81
2022/03/30 08:49:15;;;;;;;1.38;0.70;;;-3.20;99.90;;;;;;4925300;29;20414;-82
2022/03/30 08:51:49;;;;;;;4.20;0.80;;;-3.10;99.90;;;;;;4941899;29;20838;-82
2022/03/30 08:54:19;;;;;;;1.83;0.80;;;-3.00;99.90;;;;;;4941773;29;20894;-82
2022/03/30 08:56:47;;;;;;;1.90;0.70;;;-2.90;99.90;;;;;;4918829;29;20395;-82
2022/03/30 08:59:21;;;;;;;1.73;0.73;;;-2.90;99.90;;;;;;4914567;29;20557;-84
2022/03/30 09:01:52;;;;;;;2.30;0.77;;;-3.00;99.90;;;;;;4933207;29;20410;-81
2022/03/30 09:04:21;;;;;;;1.98;0.70;;;-3.00;99.90;;;;;;4954806;28;20453;-83
2022/03/30 09:06:51;;;;;;;0.90;0.60;;;-2.90;99.90;;;;;;4917066;29;20410;-83
2022/03/30 09:09:35;;;;;;;0.90;0.68;;;-2.80;99.90;;;;;;4923490;29;20413;-83
2022/03/30 09:12:08;;;;;;;1.90;0.70;;;-2.80;99.90;;;;;;4937293;29;20470;-82
2022/03/30 09:14:39;;;;;;;1.92;0.65;;;-2.80;99.90;;;;;;4920357;29;20402;-83
2022/03/30 09:17:08;;;;;;;1.25;0.60;;;-2.90;99.90;;;;;;4936315;29;20459;-83
2022/03/30 09:19:38;;;;;;;1.70;0.50;;;-3.10;99.90;;;;;;4901634;29;20399;-83
2022/03/30 09:22:08;;;;;;;1.20;0.60;;;-3.10;99.90;;;;;;4918196;29;20395;-82
2022/03/30 09:24:39;;;;;;;1.10;0.65;;;-3.10;99.90;;;;;;4918166;29;20823;-83
2022/03/30 09:27:08;;;;;;;2.30;0.63;;;-3.20;99.90;;;;;;4916915;29;20395;-82
2022/03/30 09:29:38;;;;;;;1.93;0.70;;;-3.00;99.90;;;;;;4947782;29;20757;-82
2022/03/30 09:32:24;;;;;;;1.85;0.60;;;-2.90;99.90;;;;;;4930363;29;20402;-81
2022/03/30 09:34:53;;;;;;;0.90;0.60;;;-2.50;99.90;;;;;;4936842;29;20908;-83
2022/03/30 09:37:21;;;;;;;2.15;0.70;;;-2.20;99.90;;;;;;4935600;29;20398;-82
2022/03/30 09:39:49;;;;;;;1.35;0.68;;;-2.20;99.90;;;;;;4967858;28;20825;-82
2022/03/30 09:42:18;;;;;;;1.52;0.70;;;-2.20;99.90;;;;;;4935498;29;20410;-82
2022/03/30 09:44:47;;;;;;;1.63;0.70;;;-2.30;99.90;;;;;;4935650;29;20394;-83
2022/03/30 09:47:16;;;;;;;2.28;0.80;;;-2.30;99.90;;;;;;4951254;29;20418;-82
2022/03/30 09:49:52;;;;;;;2.15;0.73;;;-2.30;99.90;;;;;;4935487;29;20802;-82
2022/03/30 09:52:24;;;;;;;1.23;0.70;;;-2.20;99.90;;;;;;4936654;29;20923;-83
2022/03/30 09:54:54;;;;;;;1.50;0.60;;;-2.10;99.90;;;;;;4950870;28;20397;-82
2022/03/30 09:57:26;;;;;;;1.20;0.60;;;-1.90;99.90;;;;;;4951235;29;20489;-83
2022/03/30 09:59:59;;;;;;;1.05;0.60;;;-1.70;99.90;;;;;;4951210;29;20485;-81
2022/03/30 10:02:28;;;;;;;1.60;0.65;;;-1.60;99.90;;;;;;4935209;29;20449;-81
2022/03/30 10:04:56;;;;;;;1.10;0.57;;;-1.90;99.90;;;;;;4935083;29;20398;-82
2022/03/30 10:07:23;;;;;;;2.25;0.70;;;-1.90;99.90;;;;;;4936374;29;20394;-82
2022/03/30 10:09:51;;;;;;;2.33;0.82;;;-2.00;99.90;;;;;;4916859;29;20457;-83
2022/03/30 10:12:19;;;;;;;1.20;0.70;;;-2.10;99.90;;;;;;4926549;29;20443;-81
2022/03/30 10:14:48;;;;;;;1.15;0.57;;;-2.20;99.90;;;;;;4925667;29;20443;-81
2022/03/30 10:17:18;;;;;;;1.40;0.70;;;-2.20;99.90;;;;;;4931970;29;20497;-82
2022/03/30 10:19:46;;;;;;;1.40;0.70;;;-2.10;99.90;;;;;;4928104;29;20480;-82
2022/03/30 10:22:32;;;;;;;1.20;0.73;;;-2.20;99.90;;;;;;4943657;29;20420;-82
2022/03/30 10:25:18;;;;;;;1.08;0.60;;;-2.10;99.90;;;;;;4920563;29;20395;-82
2022/03/30 10:28:13;;;;;;;2.33;0.63;;;-2.10;99.90;;;;;;4936122;29;20398;-82
2022/03/30 10:30:43;;;;;;;0.95;0.50;;;-2.20;99.90;;;;;;4933988;29;20452;-83
2022/03/30 10:33:12;;;;;;;1.37;0.70;;;-2.20;99.90;;;;;;4934762;29;20410;-82
2022/03/30 10:35:44;;;;;;;1.92;0.60;;;-2.20;99.90;;;;;;4934574;29;20409;-82
2022/03/30 10:38:12;;;;;;;1.55;0.70;;;-2.10;99.90;;;;;;4934596;29;20425;-82
2022/03/30 10:40:41;;;;;;;2.00;0.60;;;-1.80;99.90;;;;;;4935031;29;20457;-82
2022/03/30 10:43:13;;;;;;;0.90;0.52;;;-1.60;99.90;;;;;;4935903;29;20394;-83
2022/03/30 10:45:42;;;;;;;1.20;0.70;;;-1.50;99.90;;;;;;4935778;29;20869;-82
2022/03/30 10:48:22;;;;;;;1.85;0.70;;;-1.30;99.90;;;;;;4950456;29;20530;-83
2022/03/30 10:50:56;;;;;;;1.15;0.60;;;-1.10;99.90;;;;;;4934375;29;20504;-81
2022/03/30 10:56:15;;;;;;;0.70;0.60;;;-0.80;99.90;;;;;;4935593;29;20402;-83
2022/03/30 10:59:00;;;;;;;1.52;0.63;;;-0.90;99.90;;;;;;4935335;29;20420;-81
2022/03/30 11:01:36;;;;;;;1.27;0.70;;;-0.60;99.90;;;;;;4935501;29;20457;-82
2022/03/30 11:04:19;;;;;;;1.15;0.52;;;-0.70;99.90;;;;;;4933926;29;20430;-81
2022/03/30 11:06:54;;;;;;;1.00;0.50;;;-0.60;99.90;;;;;;4933716;29;20393;-82
2022/03/30 11:09:30;;;;;;;1.17;0.63;;;-0.60;99.90;;;;;;4950180;29;20406;-81
2022/03/30 11:11:59;;;;;;;3.08;0.65;;;-0.80;99.90;;;;;;4935206;29;20430;-83
2022/03/30 11:14:43;;;;;;;1.60;0.52;;;-1.10;99.30;;;;;;4934606;29;20402;-82
2022/03/30 11:17:29;;;;;;;1.88;0.60;;;-1.30;98.30;;;;;;4927632;29;20427;-82
2022/03/30 11:19:57;;;;;;;1.20;0.70;;;-1.40;99.90;;;;;;4917775;29;20470;-82
2022/03/30 11:22:27;;;;;;;1.70;0.60;;;-1.30;99.90;;;;;;4930691;29;20450;-83
2022/03/30 11:25:19;;;;;;;1.77;0.70;;;-1.30;99.90;;;;;;4930594;29;20399;-82
2022/03/30 11:28:01;;;;;;;1.45;0.68;;;-1.30;99.90;;;;;;4916038;29;20395;-82
2022/03/30 11:30:39;;;;;;;1.00;0.50;;;-1.30;99.90;;;;;;4930470;29;20399;-81
2022/03/30 11:33:14;;;;;;;0.95;0.57;;;-1.30;99.90;;;;;;4914756;29;20885;-83
2022/03/30 11:35:43;;;;;;;2.05;0.73;;;-1.30;99.90;;;;;;4915888;29;20791;-82
2022/03/30 11:38:21;;;;;;;0.77;0.60;;;-1.30;99.90;;;;;;4916643;29;20410;-82
2022/03/30 11:40:52;;;;;;;1.38;0.63;;;-1.30;99.90;;;;;;4935947;29;20499;-82
2022/03/30 11:43:23;;;;;;;1.75;0.70;;;-1.30;99.90;;;;;;4926887;29;20398;-82
2022/03/30 11:46:00;;;;;;;1.45;0.60;;;-1.30;99.90;;;;;;4934675;29;20734;-82
2022/03/30 11:48:36;;;;;;;3.03;0.80;;;-1.40;99.90;;;;;;4916842;29;20403;-82
2022/03/30 11:51:06;;;;;;;1.77;0.60;;;-1.30;99.90;;;;;;4915590;29;20391;-82
2022/03/30 11:53:35;;;;;;;1.15;0.50;;;-1.10;99.70;;;;;;4915198;29;20471;-82
2022/03/30 11:56:08;;;;;;;0.90;0.50;;;-0.70;99.90;;;;;;4929286;29;20401;-81
2022/03/30 11:58:38;;;;;;;0.60;0.50;;;-0.50;99.90;;;;;;4933767;29;20825;-82
2022/03/30 12:01:07;;;;;;;0.55;0.50;;;-0.20;99.30;;;;;;4934093;29;20761;-81
2022/03/30 12:03:36;;;;;;;0.75;0.55;;;0.00;98.80;;;;;;4922752;29;20420;-80
2022/03/30 12:06:06;;;;;;;0.90;0.60;;;0.20;97.70;;;;;;4934462;29;20936;-81
2022/03/30 12:08:48;;;;;;;1.20;0.60;;;0.30;99.90;;;;;;4933114;29;20789;-82
2022/03/30 12:11:20;;;;;;;1.10;0.60;;;0.40;97.90;;;;;;4933034;29;20410;-81
2022/03/30 12:13:56;;;;;;;1.90;0.70;;;0.50;99.10;;;;;;4928441;29;20497;-82
2022/03/30 12:16:24;;;;;;;1.77;0.50;;;0.50;97.60;;;;;;4916186;29;20490;-82
2022/03/30 12:19:01;;;;;;;1.52;0.55;;;0.30;96.00;;;;;;4919130;29;20411;-81
2022/03/30 12:21:38;;;;;;;1.17;0.60;;;0.20;96.20;;;;;;4924677;29;20456;-81
2022/03/30 12:24:10;;;;;;;1.50;0.50;;;0.00;96.70;;;;;;4931711;29;20416;-81
2022/03/30 12:26:51;;;;;;;0.70;0.50;;;0.00;95.70;;;;;;4928663;29;20485;-81
2022/03/30 12:29:20;;;;;;;1.27;0.60;;;-0.10;97.80;;;;;;4929764;29;20504;-81
2022/03/30 12:32:02;;;;;;;1.30;0.50;;;-0.10;97.40;;;;;;4940716;29;20404;-81
2022/03/30 12:34:33;;;;;;;1.48;0.50;;;0.10;96.20;;;;;;4927126;29;20505;-82
2022/03/30 12:37:06;;;;;;;1.30;0.60;;;0.20;98.70;;;;;;4927988;29;20422;-81
2022/03/30 12:39:39;;;;;;;0.60;0.50;;;0.30;98.60;;;;;;4927403;29;20426;-79
2022/03/30 12:42:14;;;;;;;1.83;0.50;;;0.50;98.30;;;;;;4933488;29;20493;-82
2022/03/30 12:44:58;;;;;;;1.40;0.52;;;0.50;98.80;;;;;;4922293;29;20435;-82
2022/03/30 12:47:30;;;;;;;1.02;0.63;;;0.10;99.10;;;;;;4929480;29;20488;-81
2022/03/30 12:50:03;;;;;;;0.68;0.50;;;-0.10;97.00;;;;;;4937213;29;20422;-83
2022/03/30 12:52:40;;;;;;;2.15;0.60;;;-0.10;96.30;;;;;;4942546;29;20897;-82
2022/03/30 12:55:24;;;;;;;1.58;0.57;;;-0.20;94.30;;;;;;4929643;29;20412;-82
2022/03/30 12:58:16;;;;;;;1.35;0.50;;;-0.30;95.40;;;;;;4947821;29;20903;-81
2022/03/30 13:00:51;;;;;;;1.42;0.52;;;-0.10;94.40;;;;;;4937743;29;20421;-81
2022/03/30 13:03:25;;;;;;;0.70;0.50;;;0.20;93.70;;;;;;4936250;29;20405;-81
2022/03/30 13:06:06;;;;;;;1.33;0.67;;;0.10;92.00;;;;;;4936189;29;20406;-81
2022/03/30 13:08:39;;;;;;;0.88;0.50;;;-0.20;92.50;;;;;;4952451;29;20401;-82
2022/03/30 13:11:08;;;;;;;0.73;0.50;;;-0.40;93.90;;;;;;4937290;29;20429;-80
2022/03/30 13:13:38;;;;;;;1.05;0.50;;;-0.40;94.10;;;;;;4936299;29;20457;-81
2022/03/30 13:16:07;;;;;;;1.20;0.50;;;-0.60;93.30;;;;;;4937316;29;20393;-82